Grover Beach, California
Current Conditions -  °F | °C
As of 3:56 PM on Sunday 23 Nov 2014 (Local Time) from KSBP Reporting Station
Clear Clear  
Wind Chill: 69°   Ceiling: Unl
Heat Index: 69°   Visibility: 10mi
Dew Point: 31°   Wind: 8mph
Humidity: 24%   Direction: 50°NE
Pressure: 30.2"   Gusts: NA
Location:  35.12°N, 120.62°W
Report Text: KSBP 232356Z 05007KT 10SM CLR 21/M01 A3020 RMK AO2 SLP224 T02061006 10222 20172 55009
Loading
Personal Weather Stations






























Interactive Weather Map New forecast layout! Learn more

10-Day Weather Forecast

Advertisements
Track Severe Weather on mobile